Terminal Aerodrome Forecast
Issued by NWS Cleveland, OH

Home | Current Version | Previous Version | Graphics & Text | Print | Product List | Glossary On
Versions: 1 2 3 4 5 6 7 8 9 10 11 12 13 14 15 16 17 18 19 20 21 22 23 24
000
FTUS41 KCLE 210100 AAA
TAFMFD
TAF AMD
KMFD 210108Z 2101/2124 25006KT 6SM -DZ BR BKN008 OVC012
      TEMPO 2104/2108 2SM -DZ BR OVC008
     FM211000 30010KT 4SM BR OVC006
     FM211500 32010G18KT 6SM BR SCT008 OVC015=

USA.gov is the U.S. government's official web portal to all federal, state and local government web resources and services.